Time;durP1;ratioP1;P1;durP2;ratioP2;P2;SDS_P1;SDS_P2;PMS_P1;PMS_P2;Temp;Humidity;BMP_temperature;BMP_pressure;BME280_temperature;BME280_humidity;BME280_pressure;Samples;Min_cycle;Max_cycle;Signal;HPM_P1;HPM_P2
2022/01/16 00:01:00;;;;;;;573.58;261.45;;;-2.60;99.90;;;;;;5074097;28;20470;-54
2022/01/16 00:06:13;;;;;;;619.47;285.85;;;-2.50;99.90;;;;;;5074645;28;20130;-54
2022/01/16 00:08:39;;;;;;;529.95;229.98;;;-2.60;99.90;;;;;;5074182;28;20036;-54
2022/01/16 00:11:05;;;;;;;514.10;220.05;;;-2.50;99.90;;;;;;5074212;28;20028;-54
2022/01/16 00:13:31;;;;;;;561.10;251.13;;;-2.50;99.90;;;;;;5074131;28;20470;-54
2022/01/16 00:15:57;;;;;;;586.35;263.83;;;-2.50;99.90;;;;;;5074256;28;20409;-54
2022/01/16 00:18:27;;;;;;;580.78;261.95;;;-2.50;99.90;;;;;;5074039;28;20112;-54
2022/01/16 00:20:53;;;;;;;610.28;280.95;;;-2.50;99.90;;;;;;5074052;28;20052;-54
2022/01/16 00:23:27;;;;;;;578.28;263.33;;;-2.50;99.90;;;;;;5074137;28;20443;-54
2022/01/16 00:25:56;;;;;;;573.95;260.75;;;-2.50;99.90;;;;;;5073834;28;20036;-54
2022/01/16 00:28:24;;;;;;;594.22;274.55;;;-2.60;99.90;;;;;;5073949;28;20035;-54
2022/01/16 00:30:51;;;;;;;609.88;284.45;;;-2.70;99.90;;;;;;5074116;28;20020;-54
2022/01/16 00:33:18;;;;;;;613.90;272.40;;;-2.70;99.90;;;;;;5073883;28;20028;-54
2022/01/16 00:35:44;;;;;;;645.60;294.23;;;-2.80;99.90;;;;;;5073982;28;20086;-54
2022/01/16 00:38:10;;;;;;;628.05;290.60;;;-2.80;99.90;;;;;;5073885;28;20055;-54
2022/01/16 00:40:36;;;;;;;596.13;269.30;;;-2.80;99.90;;;;;;5073871;28;20390;-54
2022/01/16 00:43:03;;;;;;;599.13;266.05;;;-2.80;99.90;;;;;;5073953;28;20047;-54
2022/01/16 00:45:33;;;;;;;540.40;235.57;;;-2.70;99.90;;;;;;5073997;28;20391;-54
2022/01/16 00:48:01;;;;;;;568.33;253.75;;;-2.70;99.90;;;;;;5073789;28;20031;-54
2022/01/16 00:50:27;;;;;;;561.67;244.88;;;-2.80;99.90;;;;;;5073846;28;20450;-54
2022/01/16 00:52:53;;;;;;;613.15;275.92;;;-2.80;99.90;;;;;;5073811;28;20067;-54
2022/01/16 00:55:19;;;;;;;585.88;260.48;;;-2.90;99.90;;;;;;5073806;28;20037;-54
2022/01/16 00:57:45;;;;;;;656.30;308.80;;;-2.90;99.90;;;;;;5073909;28;20029;-54
2022/01/16 01:00:11;;;;;;;611.47;282.23;;;-2.90;99.90;;;;;;5073783;28;20553;-54
2022/01/16 01:02:37;;;;;;;658.85;300.77;;;-2.90;99.90;;;;;;5073637;28;20112;-54
2022/01/16 01:05:03;;;;;;;744.75;344.10;;;-2.90;99.90;;;;;;5073680;28;20059;-54
2022/01/16 01:07:29;;;;;;;722.42;328.15;;;-2.80;99.90;;;;;;5073724;28;20016;-54
2022/01/16 01:09:55;;;;;;;594.97;266.85;;;-2.90;99.90;;;;;;5076737;28;20520;-54
2022/01/16 01:12:33;;;;;;;609.13;280.90;;;-2.70;99.90;;;;;;5074082;28;20082;-54
2022/01/16 01:15:09;;;;;;;603.45;278.75;;;-2.80;99.90;;;;;;5077219;28;20060;-54
2022/01/16 01:17:48;;;;;;;585.88;267.02;;;-2.90;99.90;;;;;;5077316;28;20029;-54
2022/01/16 01:20:17;;;;;;;601.58;269.00;;;-2.90;99.90;;;;;;5077002;28;20052;-54
2022/01/16 01:22:44;;;;;;;593.33;265.67;;;-2.90;99.90;;;;;;5077023;28;20038;-54
2022/01/16 01:25:14;;;;;;;609.30;279.70;;;-3.00;99.90;;;;;;5077083;28;20070;-54
2022/01/16 01:27:44;;;;;;;661.72;295.77;;;-3.10;99.90;;;;;;5077087;28;20028;-54
2022/01/16 01:30:16;;;;;;;656.72;295.48;;;-3.20;99.90;;;;;;5076797;28;20031;-54
2022/01/16 01:32:45;;;;;;;670.80;304.73;;;-3.00;99.90;;;;;;5076867;28;20036;-54
2022/01/16 01:35:12;;;;;;;681.88;312.10;;;-3.00;99.90;;;;;;5076912;28;20028;-54
2022/01/16 01:37:39;;;;;;;685.75;313.27;;;-3.00;99.90;;;;;;5076737;28;20029;-54
2022/01/16 01:40:08;;;;;;;606.30;274.33;;;-3.00;99.90;;;;;;5076750;28;20052;-54
2022/01/16 01:42:43;;;;;;;593.75;263.17;;;-3.00;99.90;;;;;;5076812;28;20489;-54
2022/01/16 01:53:23;;;;;;;629.67;277.40;;;-3.20;99.90;;;;;;5076542;28;20080;-54
2022/01/16 01:55:49;;;;;;;629.40;275.13;;;-3.30;99.90;;;;;;5076456;28;20060;-54
2022/01/16 01:58:15;;;;;;;675.33;294.50;;;-3.30;99.90;;;;;;5076465;28;20055;-54
2022/01/16 02:00:44;;;;;;;734.75;317.00;;;-3.30;99.90;;;;;;5076342;28;20032;-54
2022/01/16 02:03:18;;;;;;;760.28;325.25;;;-3.30;99.90;;;;;;5076403;28;20032;-54
2022/01/16 02:05:45;;;;;;;839.50;355.80;;;-3.20;99.90;;;;;;5076208;28;20028;-54
2022/01/16 02:08:11;;;;;;;677.55;295.48;;;-3.20;99.90;;;;;;5076571;28;20103;-54
2022/01/16 02:10:38;;;;;;;582.03;246.90;;;-3.20;99.90;;;;;;5076212;28;20536;-54
2022/01/16 02:13:08;;;;;;;556.60;241.35;;;-3.10;99.90;;;;;;5076013;28;20520;-54
2022/01/16 02:29:49;;;;;;;447.25;182.70;;;-3.40;99.90;;;;;;5075931;28;20044;-54
2022/01/16 02:34:37;;;;;;;433.02;180.60;;;-3.30;99.90;;;;;;5075654;28;20029;-54
2022/01/16 02:37:08;;;;;;;418.02;171.82;;;-3.40;99.90;;;;;;5075828;28;20036;-54
2022/01/16 02:39:36;;;;;;;416.00;168.35;;;-3.40;99.90;;;;;;5075539;28;20032;-54
2022/01/16 02:42:07;;;;;;;416.27;173.27;;;-3.50;99.90;;;;;;5075553;28;20040;-54
2022/01/16 02:44:47;;;;;;;;;;;-3.50;99.90;;;;;;5075862;28;20016;-54
2022/01/16 02:47:17;;;;;;;407.30;161.77;;;-3.60;99.90;;;;;;5075653;28;20270;-54
2022/01/16 02:49:47;;;;;;;401.67;162.70;;;-3.60;99.90;;;;;;5075257;28;20442;-54
2022/01/16 02:52:16;;;;;;;351.92;138.73;;;-3.60;99.90;;;;;;5075456;28;20092;-54
2022/01/16 02:54:45;;;;;;;408.88;165.48;;;-3.60;99.90;;;;;;5075297;28;20032;-54
2022/01/16 02:57:14;;;;;;;403.55;166.43;;;-3.60;99.90;;;;;;5075284;28;20505;-54
2022/01/16 02:59:45;;;;;;;422.70;171.48;;;-3.60;99.90;;;;;;5075146;28;20406;-54
2022/01/16 03:02:11;;;;;;;417.27;171.00;;;-3.70;99.90;;;;;;5074993;28;20032;-54
2022/01/16 03:04:37;;;;;;;420.83;168.57;;;-3.60;99.90;;;;;;5075117;28;20031;-54
2022/01/16 03:07:04;;;;;;;407.67;165.70;;;-3.70;99.90;;;;;;5075309;28;20032;-54
2022/01/16 03:09:49;;;;;;;421.67;169.15;;;-3.70;99.90;;;;;;5074923;28;20020;-54
2022/01/16 03:12:15;;;;;;;407.30;162.48;;;-3.60;99.90;;;;;;5075010;28;20032;-54
2022/01/16 03:14:41;;;;;;;394.42;160.82;;;-3.60;99.90;;;;;;5074899;28;20034;-54
2022/01/16 03:17:09;;;;;;;382.92;156.07;;;-3.60;99.90;;;;;;5074829;28;20034;-54
2022/01/16 03:22:20;;;;;;;399.67;164.48;;;-3.50;99.90;;;;;;5074875;28;20024;-54
2022/01/16 03:24:46;;;;;;;403.80;164.88;;;-3.50;99.90;;;;;;5074803;28;20028;-54
2022/01/16 03:27:21;;;;;;;390.48;161.93;;;-3.40;99.90;;;;;;5074828;28;20021;-54
2022/01/16 03:29:52;;;;;;;397.23;164.15;;;-3.50;99.90;;;;;;5074484;28;20497;-54
2022/01/16 03:32:20;;;;;;;395.27;159.07;;;-3.50;99.90;;;;;;5074255;28;20032;-54
2022/01/16 03:34:47;;;;;;;411.55;171.15;;;-3.60;99.90;;;;;;5074970;28;20028;-54
2022/01/16 03:37:13;;;;;;;552.90;239.70;;;-3.50;99.90;;;;;;5074972;28;20107;-54
2022/01/16 03:39:39;;;;;;;555.28;243.90;;;-3.60;99.90;;;;;;5074465;28;20032;-54
2022/01/16 03:42:06;;;;;;;573.42;256.60;;;-3.60;99.90;;;;;;5074556;28;20020;-54
2022/01/16 03:44:33;;;;;;;547.10;234.90;;;-3.70;99.90;;;;;;5074461;28;20028;-54
2022/01/16 03:46:59;;;;;;;501.55;211.90;;;-3.70;99.90;;;;;;5074395;28;20390;-54
2022/01/16 03:49:28;;;;;;;490.27;204.45;;;-3.70;99.90;;;;;;5074496;28;20030;-54
2022/01/16 03:51:55;;;;;;;557.20;227.57;;;-3.70;99.90;;;;;;5074333;28;20025;-54
2022/01/16 03:54:24;;;;;;;548.63;228.10;;;-3.70;99.90;;;;;;5074465;28;20052;-54
2022/01/16 03:56:50;;;;;;;576.63;245.85;;;-3.70;99.90;;;;;;5074672;28;20466;-54
2022/01/16 03:59:17;;;;;;;542.10;226.85;;;-3.70;99.90;;;;;;5074667;28;20028;-54
2022/01/16 04:01:43;;;;;;;542.08;223.05;;;-3.70;99.90;;;;;;5074366;28;20028;-54
2022/01/16 04:04:10;;;;;;;533.40;226.88;;;-3.70;99.90;;;;;;5074328;28;20401;-54
2022/01/16 04:06:36;;;;;;;536.20;231.63;;;-3.70;99.90;;;;;;5074314;28;20028;-54
2022/01/16 04:09:03;;;;;;;541.63;227.38;;;-3.60;99.90;;;;;;5074262;28;20040;-54
2022/01/16 04:11:30;;;;;;;659.20;286.42;;;-3.50;99.90;;;;;;5074357;28;20492;-54
2022/01/16 04:14:07;;;;;;;589.90;249.98;;;-3.60;99.90;;;;;;5074112;28;20039;-54
2022/01/16 04:16:34;;;;;;;495.40;198.80;;;-3.50;99.90;;;;;;5074220;28;20029;-54
2022/01/16 04:19:00;;;;;;;511.73;213.43;;;-3.50;99.90;;;;;;5073875;28;20363;-54
2022/01/16 04:21:27;;;;;;;502.55;209.60;;;-3.60;99.90;;;;;;5074114;28;20158;-54
2022/01/16 04:23:54;;;;;;;497.10;212.27;;;-3.60;99.90;;;;;;5073960;28;20024;-54
2022/01/16 04:26:21;;;;;;;498.38;206.98;;;-3.60;99.90;;;;;;5074115;28;20032;-54
2022/01/16 04:28:47;;;;;;;500.75;213.65;;;-3.60;99.90;;;;;;5073965;28;20024;-54
2022/01/16 04:31:15;;;;;;;507.92;207.57;;;-3.60;99.90;;;;;;5074044;28;20028;-54
2022/01/16 04:33:41;;;;;;;503.85;209.23;;;-3.60;99.90;;;;;;5054277;28;20025;-54
2022/01/16 04:36:08;;;;;;;532.75;225.88;;;-3.60;99.90;;;;;;5053895;28;20037;-54
2022/01/16 04:38:36;;;;;;;514.90;216.90;;;-3.50;99.90;;;;;;5053921;28;20395;-54
2022/01/16 04:43:47;;;;;;;500.80;206.82;;;-3.50;99.90;;;;;;5055518;28;20028;-54
2022/01/16 04:46:24;;;;;;;543.90;216.43;;;-3.50;99.90;;;;;;5057655;28;20017;-54
2022/01/16 04:48:51;;;;;;;510.15;213.65;;;-3.40;99.90;;;;;;5057605;28;20036;-54
2022/01/16 04:51:18;;;;;;;629.72;263.50;;;-3.40;99.90;;;;;;5057778;28;20025;-54
2022/01/16 04:53:44;;;;;;;619.03;261.15;;;-3.40;99.90;;;;;;5057630;28;20021;-54
2022/01/16 04:56:11;;;;;;;600.03;256.10;;;-3.40;99.90;;;;;;5057518;28;20037;-54
2022/01/16 04:58:38;;;;;;;549.03;239.00;;;-3.40;99.90;;;;;;5057455;28;20075;-54
2022/01/16 05:01:05;;;;;;;554.42;229.95;;;-3.30;99.90;;;;;;5057533;28;20561;-54
2022/01/16 05:03:32;;;;;;;526.50;223.27;;;-3.30;99.90;;;;;;5057445;28;20028;-54
2022/01/16 05:05:59;;;;;;;518.70;219.30;;;-3.30;99.90;;;;;;5057549;28;20466;-54
2022/01/16 05:08:26;;;;;;;448.65;184.40;;;-3.40;99.90;;;;;;5057349;28;20086;-54
2022/01/16 05:10:55;;;;;;;424.90;172.02;;;-3.40;99.90;;;;;;5057294;28;20033;-54
2022/01/16 05:16:33;;;;;;;419.48;169.05;;;-3.60;99.90;;;;;;5066511;28;20055;-54
2022/01/16 05:18:58;;;;;;;393.90;159.57;;;-3.80;99.90;;;;;;5076821;28;20032;-54
2022/01/16 05:21:24;;;;;;;371.67;151.57;;;-3.70;99.90;;;;;;5077156;28;20424;-54
2022/01/16 05:23:50;;;;;;;337.08;139.40;;;-3.70;99.90;;;;;;5076935;28;20025;-54
2022/01/16 05:26:19;;;;;;;315.55;131.48;;;-3.80;99.90;;;;;;5077078;28;20523;-54
2022/01/16 05:28:45;;;;;;;312.98;130.05;;;-3.90;99.90;;;;;;5077088;28;20036;-54
2022/01/16 05:31:11;;;;;;;332.80;134.18;;;-3.90;99.90;;;;;;5077023;28;20033;-54
2022/01/16 05:33:37;;;;;;;443.60;166.88;;;-3.80;99.90;;;;;;5076790;28;20040;-54
2022/01/16 05:36:04;;;;;;;472.60;185.65;;;-3.80;99.90;;;;;;5076807;28;20374;-54
2022/01/16 05:38:30;;;;;;;520.03;204.40;;;-3.80;99.90;;;;;;5076557;28;20582;-54
2022/01/16 05:40:56;;;;;;;500.67;202.85;;;-3.80;99.90;;;;;;5076854;28;20029;-54
2022/01/16 05:43:22;;;;;;;480.35;194.25;;;-3.80;99.90;;;;;;5076669;28;20028;-54
2022/01/16 05:45:48;;;;;;;489.70;206.18;;;-3.80;99.90;;;;;;5076564;28;20025;-54
2022/01/16 05:48:14;;;;;;;483.48;200.82;;;-3.80;99.90;;;;;;5076619;28;20381;-54
2022/01/16 05:50:40;;;;;;;486.77;209.88;;;-3.70;99.90;;;;;;5076781;28;20116;-54
2022/01/16 05:53:06;;;;;;;447.13;189.68;;;-3.80;99.90;;;;;;5076583;28;20537;-54
2022/01/16 05:55:36;;;;;;;416.23;173.98;;;-3.80;99.90;;;;;;5076055;28;20052;-54
2022/01/16 05:58:06;;;;;;;452.58;183.77;;;-3.80;99.90;;;;;;5076453;28;20036;-54
2022/01/16 06:00:34;;;;;;;435.45;179.32;;;-3.90;99.90;;;;;;5076192;28;20024;-54
2022/01/16 06:03:01;;;;;;;444.52;176.68;;;-3.90;99.90;;;;;;5076471;28;20040;-54
2022/01/16 06:05:27;;;;;;;446.35;179.93;;;-3.90;99.90;;;;;;5076319;28;20032;-54
2022/01/16 06:07:58;;;;;;;492.23;192.07;;;-3.90;99.90;;;;;;5076192;28;20044;-54
2022/01/16 06:10:24;;;;;;;522.08;210.20;;;-3.90;99.90;;;;;;5076233;28;20125;-54
2022/01/16 06:12:53;;;;;;;507.27;200.68;;;-3.90;99.90;;;;;;5075924;28;20031;-54
2022/01/16 06:15:22;;;;;;;492.88;195.93;;;-3.90;99.90;;;;;;5076148;28;20025;-54
2022/01/16 06:17:49;;;;;;;489.15;197.00;;;-3.90;99.90;;;;;;5075900;28;20036;-54
2022/01/16 06:20:15;;;;;;;504.48;203.57;;;-3.90;99.90;;;;;;5075864;28;20048;-54
2022/01/16 06:22:42;;;;;;;457.17;185.13;;;-4.10;99.90;;;;;;5075925;28;20125;-54
2022/01/16 06:25:10;;;;;;;455.98;186.35;;;-4.20;99.90;;;;;;5075945;28;20505;-54
2022/01/16 06:27:36;;;;;;;460.80;190.18;;;-4.30;99.90;;;;;;5075700;28;20020;-54
2022/01/16 06:30:05;;;;;;;419.30;175.57;;;-4.30;99.90;;;;;;5076070;28;20091;-54
2022/01/16 06:32:31;;;;;;;441.50;175.75;;;-4.40;99.90;;;;;;5075574;28;20035;-54
2022/01/16 06:34:57;;;;;;;425.38;174.30;;;-4.30;99.90;;;;;;5075663;28;20036;-54
2022/01/16 06:37:23;;;;;;;430.73;171.68;;;-4.30;99.90;;;;;;5075702;28;20066;-54
2022/01/16 06:39:49;;;;;;;471.52;183.02;;;-4.30;99.90;;;;;;5075608;28;20036;-54
2022/01/16 06:42:14;;;;;;;458.58;189.07;;;-4.30;99.90;;;;;;5075485;28;20032;-54
2022/01/16 06:44:41;;;;;;;489.60;195.93;;;-4.10;99.90;;;;;;5075517;28;20415;-54
2022/01/16 06:47:07;;;;;;;499.45;203.80;;;-4.00;99.90;;;;;;5075072;28;20402;-54
2022/01/16 06:49:33;;;;;;;506.10;204.05;;;-4.00;99.90;;;;;;5075305;28;20031;-54
2022/01/16 06:51:59;;;;;;;500.15;198.73;;;-4.10;99.90;;;;;;5075254;28;20053;-54
2022/01/16 06:54:25;;;;;;;498.63;195.60;;;-4.00;99.90;;;;;;5075194;28;20589;-54
2022/01/16 06:56:51;;;;;;;524.95;213.82;;;-4.00;99.90;;;;;;5075178;28;20128;-54
2022/01/16 06:59:17;;;;;;;493.02;204.13;;;-4.00;99.90;;;;;;5075359;28;20028;-54
2022/01/16 07:01:43;;;;;;;501.73;204.65;;;-4.00;99.90;;;;;;5075075;28;20497;-54
2022/01/16 07:04:10;;;;;;;538.38;211.45;;;-4.00;99.90;;;;;;5074837;28;20496;-54
2022/01/16 07:06:36;;;;;;;488.70;201.55;;;-4.00;99.90;;;;;;5074275;28;20082;-54
2022/01/16 07:09:02;;;;;;;507.60;207.80;;;-3.90;99.90;;;;;;5074966;28;20500;-54
2022/01/16 07:11:28;;;;;;;465.15;189.23;;;-3.90;99.90;;;;;;5075091;28;20107;-54
2022/01/16 07:13:54;;;;;;;453.38;182.63;;;-3.70;99.90;;;;;;5074884;28;20427;-54
2022/01/16 07:16:21;;;;;;;456.95;184.13;;;-3.50;99.90;;;;;;5074769;28;20032;-54
2022/01/16 07:18:48;;;;;;;454.27;183.52;;;-3.30;99.90;;;;;;5074548;28;20385;-54
2022/01/16 07:21:14;;;;;;;441.52;182.48;;;-3.20;99.90;;;;;;5074926;28;20020;-54
2022/01/16 07:23:45;;;;;;;461.10;191.20;;;-3.10;99.90;;;;;;5074802;28;20052;-54
2022/01/16 07:26:15;;;;;;;;;;;-3.20;99.90;;;;;;5075395;28;20020;-54
2022/01/16 07:28:41;;;;;;;472.67;192.45;;;-3.10;99.90;;;;;;5074500;28;19908;-54
2022/01/16 07:31:07;;;;;;;512.53;219.43;;;-3.10;99.90;;;;;;5074707;28;20032;-54
2022/01/16 07:33:33;;;;;;;545.53;253.98;;;-3.00;99.90;;;;;;5074605;28;20492;-54
2022/01/16 07:35:59;;;;;;;524.60;233.02;;;-2.80;99.90;;;;;;5074755;28;20142;-54
2022/01/16 07:38:25;;;;;;;484.98;220.65;;;-2.70;99.90;;;;;;5074524;28;20051;-54
2022/01/16 07:40:51;;;;;;;459.88;194.45;;;-2.70;99.90;;;;;;5074565;28;20035;-55
2022/01/16 07:43:17;;;;;;;418.67;177.40;;;-2.40;99.90;;;;;;5074502;28;20351;-55
2022/01/16 07:45:43;;;;;;;430.65;184.32;;;-1.90;99.90;;;;;;5074536;28;20078;-55
2022/01/16 07:48:09;;;;;;;553.50;198.02;;;-1.80;99.90;;;;;;5074407;28;20032;-55
2022/01/16 07:50:37;;;;;;;465.77;192.25;;;-1.50;99.90;;;;;;5074391;28;20020;-55
2022/01/16 07:53:04;;;;;;;763.10;215.35;;;-1.50;99.90;;;;;;5074219;28;20020;-55
2022/01/16 07:55:30;;;;;;;1109.82;243.70;;;-0.90;99.90;;;;;;5074548;28;20036;-55
2022/01/16 07:57:57;;;;;;;412.65;175.00;;;-0.20;99.90;;;;;;5074223;28;20028;-55
2022/01/16 08:00:25;;;;;;;421.10;176.80;;;-0.30;99.90;;;;;;5074207;28;20081;-55
2022/01/16 08:02:51;;;;;;;408.10;169.93;;;0.40;99.90;;;;;;5074371;28;20367;-55
2022/01/16 08:05:19;;;;;;;387.73;169.18;;;0.80;99.90;;;;;;5074181;28;20357;-55
2022/01/16 08:07:45;;;;;;;396.15;167.85;;;1.40;99.90;;;;;;5074357;28;20109;-55
2022/01/16 08:10:11;;;;;;;370.77;162.60;;;1.60;99.90;;;;;;5074209;28;20032;-55
2022/01/16 08:12:38;;;;;;;387.23;167.63;;;2.10;99.90;;;;;;5074058;28;20060;-55
2022/01/16 08:15:06;;;;;;;389.20;161.43;;;2.20;99.90;;;;;;5074405;28;20025;-55
2022/01/16 08:17:33;;;;;;;388.60;166.80;;;2.50;99.90;;;;;;5057439;28;20032;-55
2022/01/16 08:19:59;;;;;;;377.02;166.77;;;2.80;99.90;;;;;;5078108;28;20048;-56
2022/01/16 08:22:25;;;;;;;379.13;169.07;;;3.50;99.90;;;;;;5078413;28;20450;-56
2022/01/16 08:24:52;;;;;;;369.00;172.95;;;4.20;99.90;;;;;;5078460;28;20024;-56
2022/01/16 08:27:18;;;;;;;386.10;183.40;;;4.00;99.90;;;;;;5078098;28;20359;-56
2022/01/16 08:29:44;;;;;;;401.42;185.30;;;4.40;99.90;;;;;;5076665;28;20111;-56
2022/01/16 08:32:10;;;;;;;369.73;175.43;;;4.10;99.90;;;;;;5078105;28;20024;-56
2022/01/16 08:34:36;;;;;;;372.00;172.75;;;4.00;99.90;;;;;;5078051;28;20074;-56
2022/01/16 08:37:03;;;;;;;358.63;174.93;;;4.60;99.90;;;;;;5077991;28;20040;-56
2022/01/16 08:39:30;;;;;;;383.30;180.48;;;4.40;99.90;;;;;;5078379;28;20031;-56
2022/01/16 08:41:56;;;;;;;376.83;177.80;;;4.40;99.90;;;;;;5077936;28;20025;-56
2022/01/16 08:44:22;;;;;;;364.83;171.10;;;5.00;99.90;;;;;;5077799;28;20051;-56
2022/01/16 08:46:48;;;;;;;355.77;171.40;;;5.30;99.90;;;;;;5077725;28;20027;-56
2022/01/16 08:49:14;;;;;;;357.40;167.60;;;5.10;99.90;;;;;;5077760;28;20047;-56
2022/01/16 08:51:41;;;;;;;351.92;169.77;;;4.90;99.90;;;;;;5077637;28;20028;-56
2022/01/16 08:54:07;;;;;;;337.40;163.57;;;5.50;99.90;;;;;;5077561;28;20036;-56
2022/01/16 08:56:33;;;;;;;338.02;165.15;;;5.60;99.90;;;;;;5077815;28;20078;-56
2022/01/16 08:58:59;;;;;;;326.45;159.60;;;5.70;99.70;;;;;;5077639;28;20044;-56
2022/01/16 09:01:26;;;;;;;316.45;162.70;;;6.10;99.90;;;;;;5077573;28;20047;-56
2022/01/16 09:03:52;;;;;;;322.13;160.98;;;6.40;99.40;;;;;;5077394;28;20539;-57
2022/01/16 09:06:19;;;;;;;328.35;163.52;;;6.50;98.50;;;;;;5077433;28;20035;-57
2022/01/16 09:08:45;;;;;;;318.52;158.10;;;6.40;99.00;;;;;;5077301;28;20154;-57
2022/01/16 09:11:12;;;;;;;300.00;150.57;;;6.80;99.40;;;;;;5077311;28;20413;-57
2022/01/16 09:13:40;;;;;;;290.52;149.13;;;7.10;98.70;;;;;;5077159;28;20040;-57
2022/01/16 09:16:08;;;;;;;308.33;153.23;;;7.50;96.20;;;;;;5077170;28;20082;-57
2022/01/16 09:18:34;;;;;;;321.52;159.73;;;7.60;97.40;;;;;;5076992;28;20531;-57
2022/01/16 09:21:01;;;;;;;323.70;164.85;;;8.20;96.40;;;;;;5077015;28;20068;-57
2022/01/16 09:23:28;;;;;;;321.65;161.63;;;8.50;94.50;;;;;;5077413;28;20040;-56
2022/01/16 09:25:54;;;;;;;294.85;152.88;;;8.30;94.50;;;;;;5076985;28;20025;-57
2022/01/16 09:28:20;;;;;;;294.27;157.80;;;8.00;95.60;;;;;;5076553;28;20032;-57
2022/01/16 09:30:46;;;;;;;284.83;147.10;;;7.90;96.90;;;;;;5058432;28;20028;-57
2022/01/16 09:33:13;;;;;;;286.63;148.55;;;8.70;96.20;;;;;;5076938;28;20385;-57
2022/01/16 09:35:39;;;;;;;259.63;138.05;;;9.00;93.70;;;;;;5076708;28;20089;-57
2022/01/16 09:38:06;;;;;;;250.40;132.75;;;9.10;94.30;;;;;;5076844;28;20024;-56
2022/01/16 09:40:34;;;;;;;243.85;130.07;;;9.20;94.70;;;;;;5076998;28;20477;-57
2022/01/16 09:43:03;;;;;;;254.07;136.98;;;9.20;94.70;;;;;;5076875;28;20099;-56
2022/01/16 09:45:30;;;;;;;250.30;133.48;;;9.20;95.80;;;;;;5076643;28;20151;-56
2022/01/16 09:47:56;;;;;;;242.60;131.65;;;9.30;94.70;;;;;;5076605;28;20035;-56
2022/01/16 09:50:24;;;;;;;250.40;135.43;;;8.40;97.00;;;;;;5076576;28;20418;-56
2022/01/16 09:52:51;;;;;;;249.18;130.43;;;8.40;96.90;;;;;;5076571;28;20036;-56
2022/01/16 09:55:18;;;;;;;247.63;129.27;;;8.30;97.30;;;;;;5076445;28;20041;-56
2022/01/16 09:57:44;;;;;;;226.18;124.35;;;8.70;97.10;;;;;;5076472;28;20131;-56
2022/01/16 10:00:14;;;;;;;227.48;118.53;;;8.80;96.70;;;;;;5076360;28;20025;-56
2022/01/16 10:02:49;;;;;;;199.38;104.10;;;9.50;95.10;;;;;;5076344;28;20032;-56
2022/01/16 10:05:29;;;;;;;199.95;107.22;;;9.60;95.00;;;;;;5076797;28;20028;-56
2022/01/16 10:08:00;;;;;;;204.57;107.83;;;9.10;95.20;;;;;;5076365;28;20506;-56
2022/01/16 10:10:32;;;;;;;147.95;77.88;;;9.10;96.50;;;;;;5076269;28;20685;-56
2022/01/16 10:13:07;;;;;;;147.30;80.72;;;8.30;96.40;;;;;;5076373;28;20050;-56
2022/01/16 10:15:34;;;;;;;144.20;78.50;;;9.10;95.80;;;;;;5076393;28;20028;-56
2022/01/16 10:18:04;;;;;;;125.07;66.05;;;9.10;95.60;;;;;;5076114;28;20016;-56
2022/01/16 10:20:42;;;;;;;153.80;74.43;;;9.00;95.80;;;;;;5075963;28;20589;-56
2022/01/16 10:23:17;;;;;;;151.77;78.65;;;9.00;95.60;;;;;;5076205;28;20039;-56
2022/01/16 10:25:47;;;;;;;113.85;59.85;;;8.90;96.40;;;;;;5076036;28;20025;-56
2022/01/16 10:28:19;;;;;;;126.95;64.63;;;9.00;96.40;;;;;;5075999;28;20104;-56
2022/01/16 10:30:48;;;;;;;138.57;67.60;;;9.70;94.10;;;;;;5075811;28;20226;-56
2022/01/16 10:33:19;;;;;;;158.95;72.53;;;9.90;94.50;;;;;;5075824;28;20364;-56
2022/01/16 10:35:47;;;;;;;138.05;74.63;;;10.40;93.20;;;;;;5075803;28;20032;-56
2022/01/16 10:38:22;;;;;;;125.35;66.38;;;10.40;92.30;;;;;;5075714;28;20038;-56
2022/01/16 10:40:50;;;;;;;156.00;77.25;;;11.00;90.70;;;;;;5075510;28;20496;-56
2022/01/16 10:43:39;;;;;;;135.77;72.03;;;10.70;91.50;;;;;;5075618;28;20052;-56
2022/01/16 10:46:06;;;;;;;132.38;69.70;;;10.90;91.30;;;;;;5075523;28;20017;-56
2022/01/16 10:48:32;;;;;;;130.95;72.13;;;10.90;90.90;;;;;;5075161;28;20375;-56
2022/01/16 10:51:00;;;;;;;136.52;72.63;;;11.20;88.80;;;;;;5075552;28;20498;-56
2022/01/16 10:53:29;;;;;;;141.65;74.97;;;11.40;88.70;;;;;;5075339;28;20036;-56
2022/01/16 10:56:02;;;;;;;124.38;71.10;;;11.70;86.70;;;;;;5075280;28;20035;-56
2022/01/16 10:58:29;;;;;;;149.30;73.20;;;11.40;83.90;;;;;;5074988;28;20017;-56
2022/01/16 11:01:00;;;;;;;134.82;72.38;;;11.90;89.90;;;;;;5075687;28;20451;-56
2022/01/16 11:03:28;;;;;;;143.48;73.55;;;12.10;81.10;;;;;;5075093;28;20027;-56
2022/01/16 11:05:55;;;;;;;133.63;72.57;;;12.40;86.10;;;;;;5075002;28;20086;-56
2022/01/16 11:08:24;;;;;;;131.25;70.50;;;12.80;76.30;;;;;;5075098;28;20025;-56
2022/01/16 11:10:54;;;;;;;133.77;68.90;;;11.90;81.10;;;;;;5074938;28;20389;-56
2022/01/16 11:13:23;;;;;;;149.52;74.85;;;12.90;73.70;;;;;;5074882;28;20040;-56
2022/01/16 11:15:54;;;;;;;125.70;70.25;;;12.10;84.90;;;;;;5074986;28;20037;-56
2022/01/16 11:18:22;;;;;;;119.60;60.13;;;11.50;86.40;;;;;;5074777;28;20090;-56
2022/01/16 11:21:02;;;;;;;104.60;57.67;;;11.70;88.20;;;;;;5074522;28;20493;-56
2022/01/16 11:23:33;;;;;;;107.53;57.33;;;11.90;84.60;;;;;;5074811;28;20584;-56
2022/01/16 11:26:06;;;;;;;;;;;12.10;85.00;;;;;;5075306;28;20048;-56
2022/01/16 11:28:32;;;;;;;102.53;52.22;;;12.10;78.50;;;;;;5074635;28;19908;-56
2022/01/16 11:31:04;;;;;;;124.78;59.17;;;11.80;79.70;;;;;;5074850;28;20029;-56
2022/01/16 11:33:35;;;;;;;120.38;59.45;;;11.80;83.40;;;;;;5074756;28;20028;-57
2022/01/16 11:36:04;;;;;;;;;;;12.20;81.50;;;;;;5075168;28;20035;-56
2022/01/16 11:38:39;;;;;;;113.65;59.30;;;12.40;79.40;;;;;;5074734;28;20212;-56
2022/01/16 11:41:31;;;;;;;95.53;52.00;;;12.10;81.80;;;;;;5074598;28;20146;-56
2022/01/16 11:43:57;;;;;;;92.80;53.60;;;12.20;80.10;;;;;;5074522;28;20033;-57
2022/01/16 11:46:25;;;;;;;90.35;48.28;;;12.50;78.80;;;;;;5074483;28;20078;-56
2022/01/16 11:49:02;;;;;;;87.30;45.85;;;12.60;72.10;;;;;;5074429;28;20111;-56
2022/01/16 11:51:34;;;;;;;89.20;47.33;;;11.80;80.60;;;;;;5074394;28;20029;-56
2022/01/16 11:54:06;;;;;;;95.40;51.85;;;11.60;86.00;;;;;;5074234;28;20032;-56
2022/01/16 11:56:38;;;;;;;90.95;48.38;;;12.70;80.30;;;;;;5074336;28;20112;-56
2022/01/16 11:59:14;;;;;;;83.95;44.15;;;13.10;70.30;;;;;;5074225;28;20086;-56
2022/01/16 12:01:52;;;;;;;79.07;46.53;;;13.20;65.70;;;;;;5074447;28;20107;-56
2022/01/16 12:04:30;;;;;;;85.72;49.20;;;13.30;69.70;;;;;;5074305;28;20029;-56
2022/01/16 12:07:13;;;;;;;90.05;48.63;;;12.70;71.40;;;;;;5074238;28;20016;-56
2022/01/16 12:12:13;;;;;;;104.30;53.05;;;13.90;62.90;;;;;;5074212;28;20094;-56
2022/01/16 12:14:45;;;;;;;98.22;54.15;;;13.60;65.90;;;;;;5074295;28;20025;-57
2022/01/16 12:20:25;;;;;;;100.38;54.20;;;15.00;56.90;;;;;;5053785;28;20516;-56
2022/01/16 12:22:53;;;;;;;97.30;56.03;;;14.70;58.20;;;;;;5054400;28;20028;-56
2022/01/16 12:25:54;;;;;;;102.10;55.83;;;15.40;52.60;;;;;;5053875;28;20029;-56
2022/01/16 12:28:29;;;;;;;108.57;59.83;;;14.30;57.50;;;;;;5052955;28;20041;-56
2022/01/16 12:31:06;;;;;;;119.80;61.65;;;14.50;63.60;;;;;;5035816;28;20029;-56
2022/01/16 12:33:43;;;;;;;112.85;61.00;;;14.50;61.40;;;;;;5071696;28;20035;-57
2022/01/16 12:36:16;;;;;;;102.15;59.42;;;15.40;55.60;;;;;;5073902;28;20025;-57
2022/01/16 12:39:01;;;;;;;110.97;61.05;;;15.40;54.10;;;;;;5073854;28;20028;-57
2022/01/16 12:41:39;;;;;;;110.00;58.45;;;15.00;54.60;;;;;;5056406;28;20281;-56
2022/01/16 12:44:17;;;;;;;112.75;61.55;;;14.50;58.50;;;;;;5041237;28;20020;-57
2022/01/16 12:46:48;;;;;;;102.53;60.58;;;15.10;56.60;;;;;;5056326;28;20497;-56
2022/01/16 12:49:20;;;;;;;115.97;63.88;;;14.80;55.70;;;;;;5073945;28;20086;-56
2022/01/16 12:51:51;;;;;;;121.50;66.90;;;14.80;58.10;;;;;;5073720;28;20123;-56
2022/01/16 12:54:23;;;;;;;112.63;65.72;;;15.20;54.60;;;;;;5073867;28;20101;-57
2022/01/16 12:56:59;;;;;;;112.60;59.47;;;14.90;54.10;;;;;;5073850;28;20028;-57
2022/01/16 12:59:30;;;;;;;120.00;68.28;;;15.10;56.60;;;;;;5073762;28;20024;-56
2022/01/16 13:01:58;;;;;;;110.32;62.75;;;14.90;54.70;;;;;;5073616;28;20066;-56